CCA8143 ZBHH-ZUUU
Flight info
| Callsign | CCA8143 |
|---|---|
| Flight time | N/A |
| Altitude | 34100 |
| Route | IBARO8ZD IBARO W47 LOVRA W276 ANRUG W279 ONEBA G212 SUBUL W230 AKDIK AKDIK4C |
| Aircraft | B38M/M-SDE1FGHILORVWXY/HB1 |
Departure
| Time | 2026-05-05 01:57 |
|---|---|
| Airport | Hohhot Baita International Airport (ZBHH) |
Arrival
| Time | N/A |
|---|---|
| Airport | Chengdu Shuangliu International Airport (ZUUU) |
| Time | Latitude | Longitude | Altitude | Speed | Heading |
|---|---|---|---|---|---|
| 2026-05-05 01:24 | 40.85301 | 111.81543 | 3536 ft | 0 kts | 343° |
| 2026-05-05 01:37 | 40.85300 | 111.81543 | 3537 ft | 0 kts | 343° |
| 2026-05-05 01:42 | 40.85290 | 111.81548 | 3537 ft | 3 kts | 345° |
| 2026-05-05 01:42 | 40.85270 | 111.81553 | 3537 ft | 3 kts | 353° |
| 2026-05-05 01:43 | 40.85250 | 111.81554 | 3537 ft | 3 kts | 6° |
| 2026-05-05 01:43 | 40.85232 | 111.81548 | 3537 ft | 3 kts | 32° |
| 2026-05-05 01:43 | 40.85222 | 111.81535 | 3537 ft | 1 kts | 71° |
| 2026-05-05 01:43 | 40.85221 | 111.81533 | 3537 ft | 1 kts | 73° |
| 2026-05-05 01:49 | 40.85221 | 111.81534 | 3537 ft | 1 kts | 73° |
| 2026-05-05 01:49 | 40.85225 | 111.81547 | 3537 ft | 3 kts | 73° |
| 2026-05-05 01:49 | 40.85229 | 111.81566 | 3537 ft | 2 kts | 73° |
| 2026-05-05 01:49 | 40.85235 | 111.81592 | 3537 ft | 5 kts | 73° |
| 2026-05-05 01:50 | 40.85243 | 111.81657 | 3537 ft | 9 kts | 107° |
| 2026-05-05 01:50 | 40.85190 | 111.81693 | 3536 ft | 10 kts | 162° |
| 2026-05-05 01:50 | 40.85122 | 111.81722 | 3536 ft | 11 kts | 163° |
| 2026-05-05 01:50 | 40.85043 | 111.81753 | 3536 ft | 13 kts | 163° |
| 2026-05-05 01:51 | 40.85015 | 111.81850 | 3535 ft | 13 kts | 72° |
| 2026-05-05 01:51 | 40.85046 | 111.81975 | 3535 ft | 16 kts | 73° |
| 2026-05-05 01:51 | 40.85084 | 111.82132 | 3535 ft | 21 kts | 72° |
| 2026-05-05 01:51 | 40.85131 | 111.82341 | 3535 ft | 25 kts | 73° |
| 2026-05-05 01:52 | 40.85184 | 111.82566 | 3535 ft | 26 kts | 72° |
| 2026-05-05 01:52 | 40.85239 | 111.82798 | 3535 ft | 27 kts | 72° |
| 2026-05-05 01:52 | 40.85292 | 111.83019 | 3535 ft | 25 kts | 73° |
| 2026-05-05 01:52 | 40.85345 | 111.83245 | 3535 ft | 26 kts | 72° |
| 2026-05-05 01:53 | 40.85400 | 111.83477 | 3535 ft | 27 kts | 73° |
| 2026-05-05 01:53 | 40.85452 | 111.83697 | 3535 ft | 25 kts | 72° |
| 2026-05-05 01:53 | 40.85504 | 111.83919 | 3535 ft | 26 kts | 72° |
| 2026-05-05 01:53 | 40.85549 | 111.84108 | 3535 ft | 18 kts | 72° |
| 2026-05-05 01:54 | 40.85581 | 111.84243 | 3535 ft | 6 kts | 72° |
| 2026-05-05 01:54 | 40.85591 | 111.84282 | 3535 ft | 7 kts | 72° |
| 2026-05-05 01:54 | 40.85605 | 111.84381 | 3535 ft | 9 kts | 107° |
| 2026-05-05 01:54 | 40.85545 | 111.84428 | 3533 ft | 12 kts | 164° |
| 2026-05-05 01:55 | 40.85470 | 111.84458 | 3528 ft | 7 kts | 162° |
| 2026-05-05 01:55 | 40.85437 | 111.84435 | 3529 ft | 6 kts | 243° |
| 2026-05-05 01:55 | 40.85428 | 111.84399 | 3529 ft | 7 kts | 254° |
| 2026-05-05 01:55 | 40.85424 | 111.84381 | 3529 ft | 0 kts | 253° |
| 2026-05-05 01:56 | 40.85423 | 111.84378 | 3529 ft | 2 kts | 253° |
| 2026-05-05 01:56 | 40.85387 | 111.84222 | 3527 ft | 47 kts | 252° |
| 2026-05-05 01:56 | 40.85224 | 111.83537 | 3529 ft | 108 kts | 252° |
| 2026-05-05 01:56 | 40.84950 | 111.82375 | 3527 ft | 156 kts | 252° |
| 2026-05-05 01:57 | 40.84789 | 111.81752 | 3581 ft | 167 kts | 251° |
| 2026-05-05 01:57 | 40.84437 | 111.80240 | 4031 ft | 176 kts | 253° |
| 2026-05-05 01:57 | 40.84081 | 111.78620 | 4540 ft | 193 kts | 252° |
| 2026-05-05 01:57 | 40.83702 | 111.76903 | 5290 ft | 193 kts | 251° |
| 2026-05-05 01:58 | 40.83303 | 111.75145 | 5946 ft | 208 kts | 250° |
| 2026-05-05 01:58 | 40.82852 | 111.73309 | 6750 ft | 211 kts | 249° |
| 2026-05-05 01:58 | 40.82395 | 111.71446 | 7550 ft | 215 kts | 250° |
| 2026-05-05 01:58 | 40.81945 | 111.69582 | 8403 ft | 216 kts | 251° |
| 2026-05-05 01:59 | 40.81342 | 111.67724 | 9019 ft | 229 kts | 236° |
| 2026-05-05 01:59 | 40.80065 | 111.66348 | 9456 ft | 253 kts | 202° |
| 2026-05-05 01:59 | 40.78244 | 111.66184 | 9920 ft | 280 kts | 170° |
| 2026-05-05 01:59 | 40.76433 | 111.67384 | 10396 ft | 305 kts | 149° |
| 2026-05-05 02:00 | 40.74626 | 111.68960 | 10914 ft | 317 kts | 152° |
| 2026-05-05 02:00 | 40.72715 | 111.70538 | 11482 ft | 329 kts | 152° |
| 2026-05-05 02:00 | 40.70752 | 111.72140 | 12222 ft | 334 kts | 152° |
| 2026-05-05 02:00 | 40.68762 | 111.73763 | 13027 ft | 339 kts | 152° |
| 2026-05-05 02:01 | 40.66732 | 111.75411 | 13814 ft | 344 kts | 152° |
| 2026-05-05 02:01 | 40.64678 | 111.77080 | 14565 ft | 349 kts | 152° |
| 2026-05-05 02:01 | 40.62590 | 111.78715 | 15332 ft | 351 kts | 158° |
| 2026-05-05 02:01 | 40.60327 | 111.79862 | 16076 ft | 353 kts | 164° |
| 2026-05-05 02:02 | 40.57974 | 111.80988 | 16804 ft | 358 kts | 163° |
| 2026-05-05 02:02 | 40.55645 | 111.82106 | 17518 ft | 363 kts | 163° |
| 2026-05-05 02:02 | 40.53249 | 111.83256 | 18203 ft | 368 kts | 163° |
| 2026-05-05 02:02 | 40.50823 | 111.84419 | 18818 ft | 372 kts | 163° |
| 2026-05-05 02:03 | 40.48368 | 111.85595 | 19421 ft | 376 kts | 163° |
| 2026-05-05 02:03 | 40.45895 | 111.86780 | 20036 ft | 380 kts | 163° |
| 2026-05-05 02:03 | 40.43400 | 111.87973 | 20641 ft | 384 kts | 163° |
| 2026-05-05 02:03 | 40.40858 | 111.89076 | 21222 ft | 384 kts | 173° |
| 2026-05-05 02:04 | 40.38253 | 111.89252 | 21785 ft | 379 kts | 189° |
| 2026-05-05 02:04 | 40.35610 | 111.88937 | 22308 ft | 384 kts | 189° |
| 2026-05-05 02:04 | 40.32935 | 111.88603 | 22898 ft | 387 kts | 190° |
| 2026-05-05 02:04 | 40.30246 | 111.88246 | 23470 ft | 390 kts | 191° |
| 2026-05-05 02:05 | 40.27538 | 111.87872 | 23930 ft | 394 kts | 191° |
| 2026-05-05 02:05 | 40.24800 | 111.87488 | 24397 ft | 397 kts | 191° |
| 2026-05-05 02:05 | 40.22044 | 111.87098 | 24842 ft | 400 kts | 191° |
| 2026-05-05 02:05 | 40.19260 | 111.86705 | 25295 ft | 404 kts | 191° |
| 2026-05-05 02:06 | 40.16452 | 111.86307 | 25737 ft | 407 kts | 191° |
| 2026-05-05 02:06 | 40.13625 | 111.85908 | 26171 ft | 411 kts | 191° |
| 2026-05-05 02:06 | 40.10775 | 111.85505 | 26601 ft | 414 kts | 191° |
| 2026-05-05 02:06 | 40.07904 | 111.85099 | 27033 ft | 417 kts | 191° |
| 2026-05-05 02:07 | 40.05004 | 111.84690 | 27452 ft | 420 kts | 191° |
| 2026-05-05 02:07 | 40.02088 | 111.84272 | 27865 ft | 422 kts | 193° |
| 2026-05-05 02:07 | 39.99293 | 111.83280 | 28216 ft | 414 kts | 210° |
| 2026-05-05 02:07 | 39.96878 | 111.81302 | 28568 ft | 409 kts | 223° |
| 2026-05-05 02:08 | 39.94627 | 111.79001 | 28888 ft | 414 kts | 223° |
| 2026-05-05 02:08 | 39.92375 | 111.76646 | 29310 ft | 416 kts | 224° |
| 2026-05-05 02:08 | 39.90124 | 111.74253 | 29708 ft | 419 kts | 224° |
| 2026-05-05 02:08 | 39.87871 | 111.71834 | 30030 ft | 422 kts | 225° |
| 2026-05-05 02:09 | 39.85602 | 111.69386 | 30315 ft | 426 kts | 225° |
| 2026-05-05 02:09 | 39.83341 | 111.66943 | 30607 ft | 429 kts | 225° |
| 2026-05-05 02:09 | 39.81032 | 111.64450 | 30883 ft | 433 kts | 225° |
| 2026-05-05 02:09 | 39.78710 | 111.61943 | 31155 ft | 436 kts | 225° |
| 2026-05-05 02:10 | 39.76363 | 111.59412 | 31446 ft | 439 kts | 225° |
| 2026-05-05 02:10 | 39.74000 | 111.56866 | 31769 ft | 441 kts | 225° |
| 2026-05-05 02:10 | 39.71633 | 111.54318 | 32109 ft | 442 kts | 225° |
| 2026-05-05 02:10 | 39.69268 | 111.51775 | 32441 ft | 443 kts | 225° |
| 2026-05-05 02:11 | 39.66878 | 111.49206 | 32761 ft | 445 kts | 225° |
| 2026-05-05 02:11 | 39.64486 | 111.46639 | 33104 ft | 446 kts | 225° |
| 2026-05-05 02:11 | 39.62093 | 111.44073 | 33412 ft | 448 kts | 225° |
| 2026-05-05 02:11 | 39.59683 | 111.41490 | 33700 ft | 450 kts | 226° |
| 2026-05-05 02:12 | 39.57290 | 111.38929 | 33892 ft | 452 kts | 226° |
| 2026-05-05 02:12 | 39.52446 | 111.33751 | 33893 ft | 449 kts | 225° |
| 2026-05-05 02:13 | 39.47625 | 111.28606 | 33886 ft | 449 kts | 225° |
| 2026-05-05 02:13 | 39.42791 | 111.23458 | 33882 ft | 450 kts | 226° |
| 2026-05-05 02:14 | 39.37959 | 111.18321 | 33876 ft | 450 kts | 225° |